createdAt,value
2019-03-21T00:01:29.781Z,132.55
2019-03-21T00:04:00.388Z,131.32
2019-03-21T00:06:28.198Z,132.27
2019-03-21T00:08:56.220Z,131.90
2019-03-21T00:12:00.881Z,132.40
2019-03-21T00:14:35.801Z,132.03
2019-03-21T00:17:05.094Z,132.37
2019-03-21T00:19:32.765Z,131.37
2019-03-21T00:22:00.415Z,131.12
2019-03-21T00:24:28.136Z,131.85
2019-03-21T00:26:58.400Z,131.10
2019-03-21T00:29:26.061Z,130.87
2019-03-21T00:31:55.337Z,131.27
2019-03-21T00:34:22.905Z,130.97
2019-03-21T00:36:50.769Z,130.52
2019-03-21T00:39:18.498Z,132.15
2019-03-21T00:41:46.240Z,131.12
2019-03-21T00:44:18.230Z,131.03
2019-03-21T00:46:43.465Z,130.57
2019-03-21T00:49:11.237Z,129.85
2019-03-21T00:51:38.935Z,130.07
2019-03-21T00:54:08.008Z,130.47
2019-03-21T00:56:36.041Z,131.70
2019-03-21T00:59:03.703Z,131.35
2019-03-21T01:01:32.815Z,132.22
2019-03-21T01:04:00.353Z,131.40
2019-03-21T01:06:28.123Z,131.55
2019-03-21T01:08:56.124Z,132.05
2019-03-21T01:11:23.720Z,131.43
2019-03-21T01:13:51.292Z,130.30
2019-03-21T01:16:20.706Z,131.47
2019-03-21T01:18:48.375Z,130.07
2019-03-21T01:21:16.045Z,129.82
2019-03-21T01:23:44.275Z,131.20
2019-03-21T01:26:13.184Z,130.40
2019-03-21T01:28:40.734Z,130.60
2019-03-21T01:31:08.424Z,130.60
2019-03-21T01:33:36.983Z,130.25
2019-03-21T01:36:08.778Z,130.12
2019-03-21T01:38:36.977Z,129.68
2019-03-21T01:41:04.776Z,129.27
2019-03-21T01:43:34.215Z,130.18
2019-03-21T01:46:03.008Z,130.25
2019-03-21T01:48:30.939Z,129.87
2019-03-21T01:50:58.906Z,129.03
2019-03-21T01:53:29.929Z,129.72
2019-03-21T01:55:57.697Z,128.85
2019-03-21T01:58:25.573Z,129.93
2019-03-21T02:00:53.159Z,128.78
2019-03-21T02:03:20.873Z,129.53
2019-03-21T02:05:48.749Z,129.90
2019-03-21T02:08:16.428Z,130.40
2019-03-21T02:10:44.559Z,129.25
2019-03-21T02:13:12.306Z,129.87
2019-03-21T02:15:41.104Z,131.03
2019-03-21T02:18:10.331Z,130.05
2019-03-21T02:20:38.015Z,129.78
2019-03-21T02:23:05.624Z,130.95
2019-03-21T02:25:33.823Z,129.55
2019-03-21T02:28:01.377Z,129.55
2019-03-21T02:30:34.145Z,130.43
2019-03-21T02:33:29.303Z,130.57
2019-03-21T02:35:56.988Z,130.10
2019-03-21T02:38:24.662Z,131.07
2019-03-21T02:40:52.347Z,130.18
2019-03-21T02:43:20.149Z,129.82
2019-03-21T02:45:48.208Z,130.10
2019-03-21T02:48:16.999Z,131.40
2019-03-21T02:50:45.878Z,131.05
2019-03-21T02:53:13.534Z,131.82
2019-03-21T02:55:41.082Z,130.10
2019-03-21T02:58:08.770Z,130.60
2019-03-21T03:00:36.698Z,130.55
2019-03-21T03:03:05.949Z,130.47
2019-03-21T03:05:33.727Z,130.63
2019-03-21T03:08:01.633Z,131.03
2019-03-21T03:10:32.027Z,130.45
2019-03-21T03:12:59.828Z,129.97
2019-03-21T03:15:29.088Z,131.32
2019-03-21T03:17:56.635Z,129.55
2019-03-21T03:20:24.268Z,130.05
2019-03-21T03:22:51.815Z,129.95
2019-03-21T03:25:19.388Z,130.60
2019-03-21T03:27:49.283Z,128.93
2019-03-21T03:30:18.957Z,129.68
2019-03-21T03:32:46.649Z,129.93
2019-03-21T03:35:14.669Z,130.70
2019-03-21T03:37:42.696Z,130.80
2019-03-21T03:40:13.334Z,131.20
2019-03-21T03:42:42.719Z,131.67
2019-03-21T03:45:13.874Z,130.82
2019-03-21T03:47:41.585Z,132.22
2019-03-21T03:50:09.868Z,131.40
2019-03-21T03:52:37.405Z,130.67
2019-03-21T03:55:06.980Z,132.20
2019-03-21T03:57:34.879Z,130.97
2019-03-21T04:00:02.877Z,131.83
2019-03-21T04:02:30.666Z,132.23
2019-03-21T04:04:59.770Z,131.00
2019-03-21T04:07:27.631Z,131.17
2019-03-21T04:09:56.647Z,130.83
2019-03-21T04:12:24.902Z,131.77
2019-03-21T04:14:52.496Z,131.93
2019-03-21T04:17:20.098Z,131.10
2019-03-21T04:19:47.710Z,132.00
2019-03-21T04:22:16.591Z,131.37
2019-03-21T04:24:44.309Z,132.63
2019-03-21T04:27:11.928Z,131.27
2019-03-21T04:29:39.481Z,131.60
2019-03-21T04:32:07.048Z,131.70
2019-03-21T04:34:34.676Z,132.00
2019-03-21T04:37:02.210Z,132.87
2019-03-21T04:39:29.857Z,133.13
2019-03-21T04:41:57.440Z,131.82
2019-03-21T04:44:25.013Z,133.03
2019-03-21T04:46:52.556Z,133.57
2019-03-21T04:49:20.697Z,132.27
2019-03-21T04:51:48.363Z,133.73
2019-03-21T04:54:16.132Z,132.27
2019-03-21T04:56:43.892Z,133.73
2019-03-21T04:59:11.507Z,132.07
2019-03-21T05:01:39.086Z,131.73
2019-03-21T05:04:08.217Z,130.85
2019-03-21T05:06:35.894Z,132.25
2019-03-21T05:09:06.601Z,133.00
2019-03-21T05:11:36.560Z,133.53
2019-03-21T05:14:04.117Z,132.23
2019-03-21T05:16:31.834Z,132.57
2019-03-21T05:19:00.019Z,131.33
2019-03-21T05:21:29.365Z,131.33
2019-03-21T05:23:56.940Z,132.60
2019-03-21T05:26:24.538Z,131.30
2019-03-21T05:28:52.116Z,133.87
2019-03-21T05:31:23.713Z,132.22
2019-03-21T05:33:51.331Z,131.37
2019-03-21T05:36:18.942Z,131.93
2019-03-21T05:38:46.812Z,131.93
2019-03-21T05:41:15.700Z,132.82
2019-03-21T05:43:52.538Z,135.05
2019-03-21T05:46:26.518Z,131.75
2019-03-21T05:48:50.782Z,132.40
2019-03-21T05:51:18.352Z,133.57
2019-03-21T05:53:46.015Z,133.93
2019-03-21T05:56:27.311Z,133.85
2019-03-21T05:58:55.346Z,134.67
2019-03-21T06:01:23.001Z,134.80
2019-03-21T06:03:51.312Z,133.82
2019-03-21T06:06:23.013Z,135.03
2019-03-21T06:08:50.561Z,134.43
2019-03-21T06:11:18.144Z,135.45
2019-03-21T06:13:47.958Z,133.97
2019-03-21T06:16:15.664Z,134.67
2019-03-21T06:18:58.670Z,134.00
2019-03-21T06:21:43.159Z,139.62
2019-03-21T06:24:55.837Z,141.03
2019-03-21T06:27:31.889Z,140.35
2019-03-21T06:29:59.742Z,138.18
2019-03-21T06:32:27.487Z,137.52
2019-03-21T06:34:55.730Z,136.37
2019-03-21T06:37:23.901Z,137.90
2019-03-21T06:39:51.481Z,137.07
2019-03-21T06:42:19.089Z,137.10
2019-03-21T06:44:47.105Z,136.15
2019-03-21T06:47:14.853Z,136.68
2019-03-21T06:49:42.408Z,135.95
2019-03-21T06:52:10.104Z,137.12
2019-03-21T06:54:41.003Z,138.52
2019-03-21T06:57:09.663Z,138.60
2019-03-21T06:59:37.386Z,137.70
2019-03-21T07:02:04.937Z,138.97
2019-03-21T07:04:32.498Z,140.40
2019-03-21T07:07:08.038Z,142.05
2019-03-21T07:09:30.295Z,140.22
2019-03-21T07:11:58.197Z,142.22
2019-03-21T07:14:25.814Z,139.47
2019-03-21T07:17:00.269Z,139.12
2019-03-21T07:19:23.152Z,140.12
2019-03-21T07:21:50.817Z,139.00
2019-03-21T07:24:19.026Z,137.57
2019-03-21T07:26:46.631Z,138.18
2019-03-21T07:29:14.299Z,139.75
2019-03-21T07:31:43.196Z,139.60
2019-03-21T07:34:10.868Z,141.00
2019-03-21T07:36:38.549Z,140.35
2019-03-21T07:39:07.345Z,139.30
2019-03-21T07:41:35.030Z,139.65
2019-03-21T07:44:02.616Z,140.68
2019-03-21T07:46:32.048Z,139.92
2019-03-21T07:48:59.686Z,140.47
2019-03-21T07:51:27.938Z,141.55
2019-03-21T07:53:55.544Z,140.18
2019-03-21T07:56:25.031Z,140.25
2019-03-21T07:58:52.965Z,141.77
2019-03-21T08:01:20.523Z,142.07
2019-03-21T08:03:48.322Z,140.57
2019-03-21T08:06:16.386Z,141.77
2019-03-21T08:08:44.045Z,143.40
2019-03-21T08:11:11.634Z,141.32
2019-03-21T08:13:39.391Z,139.97
2019-03-21T08:16:06.983Z,141.22
2019-03-21T08:18:34.580Z,142.72
2019-03-21T08:21:04.220Z,143.07
2019-03-21T08:23:31.897Z,141.80
2019-03-21T08:25:59.573Z,142.68
2019-03-21T08:28:27.700Z,141.77
2019-03-21T08:31:13.413Z,142.68
2019-03-21T08:33:42.241Z,141.82
2019-03-21T08:36:09.867Z,143.07
2019-03-21T08:38:38.535Z,140.37
2019-03-21T08:41:06.265Z,141.47
2019-03-21T08:43:33.923Z,144.77
2019-03-21T08:46:02.123Z,142.20
2019-03-21T08:48:30.983Z,141.25
2019-03-21T08:51:07.687Z,141.68
2019-03-21T08:53:28.126Z,140.92
2019-03-21T08:55:55.712Z,141.70
2019-03-21T08:58:23.509Z,140.73
2019-03-21T09:00:51.329Z,141.22
2019-03-21T09:03:19.350Z,143.00
2019-03-21T09:05:46.913Z,142.18
2019-03-21T09:08:14.563Z,142.43
2019-03-21T09:10:42.670Z,141.55
2019-03-21T09:13:10.250Z,140.75
2019-03-21T09:15:37.824Z,139.77
2019-03-21T09:18:05.529Z,140.52
2019-03-21T09:20:33.673Z,141.80
2019-03-21T09:23:01.230Z,141.10
2019-03-21T09:25:29.156Z,140.55
2019-03-21T09:28:05.439Z,141.68
2019-03-21T09:30:33.177Z,141.05
2019-03-21T09:33:03.242Z,140.68
2019-03-21T09:35:30.883Z,141.68
2019-03-21T09:37:58.830Z,142.77
2019-03-21T09:40:26.930Z,144.37
2019-03-21T09:42:54.592Z,141.85
2019-03-21T09:45:22.413Z,142.22
2019-03-21T09:47:50.980Z,142.57
2019-03-21T09:50:26.079Z,141.47
2019-03-21T09:52:57.625Z,142.65
2019-03-21T09:55:27.203Z,141.70
2019-03-21T09:57:54.815Z,141.18
2019-03-21T10:00:29.661Z,144.55
2019-03-21T10:02:58.335Z,142.32
2019-03-21T10:05:26.050Z,143.02
2019-03-21T10:07:54.024Z,141.62
2019-03-21T10:10:26.939Z,146.05
2019-03-21T10:12:55.638Z,142.70
2019-03-21T10:15:24.623Z,142.70
2019-03-21T10:17:52.262Z,143.30
2019-03-21T10:20:20.422Z,145.53
2019-03-21T10:22:47.979Z,143.70
2019-03-21T10:25:19.011Z,141.88
2019-03-21T10:27:48.677Z,145.32
2019-03-21T10:30:30.303Z,143.47
2019-03-21T10:32:58.254Z,142.55
2019-03-21T10:35:26.164Z,144.35
2019-03-21T10:37:53.798Z,146.10
2019-03-21T10:40:21.423Z,144.13
2019-03-21T10:42:49.131Z,146.28
2019-03-21T10:45:16.812Z,145.35
2019-03-21T10:47:44.436Z,146.87
2019-03-21T10:50:15.692Z,149.20
2019-03-21T10:52:43.308Z,149.18
2019-03-21T10:55:11.022Z,149.05
2019-03-21T10:57:38.606Z,149.25
2019-03-21T11:00:07.026Z,148.32
2019-03-21T11:02:35.226Z,149.02
2019-03-21T11:05:02.992Z,148.62
2019-03-21T11:07:30.972Z,146.62
2019-03-21T11:09:59.867Z,149.05
2019-03-21T11:12:27.588Z,147.30
2019-03-21T11:14:55.262Z,145.87
2019-03-21T11:17:23.515Z,147.50
2019-03-21T11:19:51.199Z,145.70
2019-03-21T11:22:18.764Z,145.45
2019-03-21T11:24:47.352Z,144.57
2019-03-21T11:27:18.359Z,145.77
2019-03-21T11:29:46.053Z,145.70
2019-03-21T11:32:16.166Z,146.07
2019-03-21T11:34:43.743Z,146.95
2019-03-21T11:37:12.188Z,145.68
2019-03-21T11:39:39.836Z,148.30
2019-03-21T11:42:07.455Z,146.98
2019-03-21T11:44:35.440Z,147.78
2019-03-21T11:47:03.184Z,148.02
2019-03-21T11:49:31.958Z,146.85
2019-03-21T11:52:00.281Z,146.22
2019-03-21T11:54:27.966Z,148.15
2019-03-21T11:56:56.815Z,144.10
2019-03-21T11:59:24.515Z,145.05
2019-03-21T12:01:52.221Z,144.20
2019-03-21T12:04:19.811Z,145.02
2019-03-21T12:06:47.390Z,144.32
2019-03-21T12:09:15.013Z,145.77
2019-03-21T12:11:43.122Z,145.68
2019-03-21T12:14:10.745Z,142.55
2019-03-21T12:16:38.347Z,144.25
2019-03-21T12:19:07.930Z,144.68
2019-03-21T12:21:35.498Z,145.90
2019-03-21T12:24:03.143Z,144.53
2019-03-21T12:26:31.203Z,143.87
2019-03-21T12:28:58.804Z,144.97
2019-03-21T12:31:26.471Z,145.60
2019-03-21T12:34:06.475Z,145.55
2019-03-21T12:37:06.416Z,146.05
2019-03-21T12:39:38.006Z,145.90
2019-03-21T12:42:05.754Z,145.80
2019-03-21T12:44:33.466Z,148.70
2019-03-21T12:47:07.360Z,148.53
2019-03-21T12:49:48.516Z,150.10
2019-03-21T12:52:17.759Z,150.20
2019-03-21T12:54:45.551Z,148.55
2019-03-21T12:57:13.125Z,151.10
2019-03-21T12:59:44.681Z,149.87
2019-03-21T13:02:12.375Z,150.32
2019-03-21T13:04:40.173Z,149.07
2019-03-21T13:07:14.104Z,147.78
2019-03-21T13:09:41.722Z,148.25
2019-03-21T13:12:14.565Z,146.95
2019-03-21T13:14:42.161Z,146.85
2019-03-21T13:17:09.916Z,145.17
2019-03-21T13:19:37.742Z,148.93
2019-03-21T13:22:05.321Z,147.37
2019-03-21T13:24:33.303Z,145.62
2019-03-21T13:27:01.527Z,146.68
2019-03-21T13:29:29.117Z,144.85
2019-03-21T13:31:57.211Z,146.55
2019-03-21T13:34:25.372Z,147.45
2019-03-21T13:36:53.055Z,146.68
2019-03-21T13:39:20.757Z,148.05
2019-03-21T13:41:48.380Z,150.62
2019-03-21T13:44:16.375Z,147.45
2019-03-21T13:46:43.953Z,149.55
2019-03-21T13:49:11.968Z,146.82
2019-03-21T13:51:39.648Z,147.07
2019-03-21T13:54:08.787Z,151.80
2019-03-21T13:56:38.549Z,147.02
2019-03-21T13:59:07.403Z,146.90
2019-03-21T14:01:35.419Z,147.05
2019-03-21T14:04:03.012Z,147.78
2019-03-21T14:06:30.578Z,150.03
2019-03-21T14:08:58.261Z,150.00
2019-03-21T14:11:26.391Z,149.07
2019-03-21T14:13:54.103Z,148.07
2019-03-21T14:16:21.658Z,146.43
2019-03-21T14:18:49.748Z,147.00
2019-03-21T14:21:17.310Z,147.78
2019-03-21T14:23:44.984Z,146.22
2019-03-21T14:26:12.582Z,148.57
2019-03-21T14:28:41.720Z,149.93
2019-03-21T14:31:09.304Z,146.82
2019-03-21T14:33:37.182Z,148.17
2019-03-21T14:36:04.987Z,147.22
2019-03-21T14:38:32.759Z,148.80
2019-03-21T14:41:01.437Z,148.40
2019-03-21T14:43:29.194Z,148.78
2019-03-21T14:45:57.325Z,147.50
2019-03-21T14:48:24.932Z,147.90
2019-03-21T14:50:52.595Z,146.65
2019-03-21T14:53:28.809Z,148.05
2019-03-21T14:55:49.891Z,148.22
2019-03-21T14:58:17.588Z,147.47
2019-03-21T15:00:45.991Z,147.22
2019-03-21T15:03:15.548Z,147.15
2019-03-21T15:05:49.666Z,146.70
2019-03-21T15:08:26.248Z,145.75
2019-03-21T15:10:53.866Z,148.55
2019-03-21T15:13:22.869Z,148.02
2019-03-21T15:15:52.229Z,149.50
2019-03-21T15:18:19.788Z,147.95
2019-03-21T15:20:47.428Z,147.02
2019-03-21T15:23:15.350Z,148.57
2019-03-21T15:25:43.531Z,146.68
2019-03-21T15:28:46.225Z,147.65
2019-03-21T15:31:42.896Z,145.30
2019-03-21T15:34:14.559Z,145.40
2019-03-21T15:36:42.507Z,147.53
2019-03-21T15:39:10.174Z,148.78
2019-03-21T15:41:38.104Z,149.45
2019-03-21T15:44:08.259Z,146.57
2019-03-21T15:46:39.653Z,145.90
2019-03-21T15:49:13.357Z,145.43
2019-03-21T15:51:47.088Z,147.80
2019-03-21T15:54:26.122Z,147.05
2019-03-21T15:57:13.327Z,145.30
2019-03-21T15:59:42.714Z,146.85
2019-03-21T16:02:10.290Z,146.87
2019-03-21T16:04:37.925Z,146.00
2019-03-21T16:07:05.504Z,146.07
2019-03-21T16:09:33.094Z,146.57
2019-03-21T16:12:00.866Z,147.47
2019-03-21T16:14:28.598Z,146.93
2019-03-21T16:16:58.655Z,145.57
2019-03-21T16:19:30.284Z,147.22
2019-03-21T16:21:57.925Z,146.07
2019-03-21T16:24:25.607Z,146.22
2019-03-21T16:26:53.296Z,147.28
2019-03-21T16:29:20.973Z,146.80
2019-03-21T16:31:48.578Z,148.43
2019-03-21T16:34:17.692Z,147.13
2019-03-21T16:36:46.373Z,147.90
2019-03-21T16:39:14.111Z,146.32
2019-03-21T16:41:43.920Z,145.87
2019-03-21T16:44:12.143Z,145.20
2019-03-21T16:46:39.884Z,148.15
2019-03-21T16:49:07.649Z,147.75
2019-03-21T16:51:36.602Z,146.13
2019-03-21T16:54:16.232Z,146.13
2019-03-21T16:56:34.894Z,148.05
2019-03-21T16:59:14.701Z,145.65
2019-03-21T17:01:42.282Z,146.68
2019-03-21T17:04:09.942Z,146.02
2019-03-21T17:06:37.724Z,146.53
2019-03-21T17:09:07.525Z,148.02
2019-03-21T17:11:35.589Z,146.53
2019-03-21T17:14:03.206Z,146.77
2019-03-21T17:16:30.805Z,146.90
2019-03-21T17:18:58.534Z,146.30
2019-03-21T17:21:26.222Z,148.65
2019-03-21T17:23:53.847Z,148.28
2019-03-21T17:26:21.855Z,147.95
2019-03-21T17:28:49.735Z,149.90
2019-03-21T17:31:17.515Z,153.30
2019-03-21T17:33:45.173Z,147.07
2019-03-21T17:36:12.832Z,146.65
2019-03-21T17:38:40.479Z,143.15
2019-03-21T17:41:08.177Z,145.62
2019-03-21T17:43:36.110Z,144.77
2019-03-21T17:46:04.000Z,142.75
2019-03-21T17:48:31.612Z,144.87
2019-03-21T17:50:59.280Z,143.80
2019-03-21T17:53:27.440Z,143.78
2019-03-21T17:55:56.233Z,145.50
2019-03-21T17:58:23.969Z,143.87
2019-03-21T18:00:51.581Z,146.98
2019-03-21T18:03:19.286Z,147.62
2019-03-21T18:05:48.784Z,149.85
2019-03-21T18:08:16.973Z,146.07
2019-03-21T18:10:45.977Z,143.90
2019-03-21T18:13:13.902Z,144.35
2019-03-21T18:15:41.595Z,144.85
2019-03-21T18:18:09.316Z,144.20
2019-03-21T18:20:37.055Z,145.75
2019-03-21T18:23:06.153Z,144.70
2019-03-21T18:25:33.773Z,143.35
2019-03-21T18:28:02.133Z,143.28
2019-03-21T18:30:30.145Z,142.82
2019-03-21T18:32:59.059Z,141.97
2019-03-21T18:35:27.188Z,144.05
2019-03-21T18:37:55.110Z,144.35
2019-03-21T18:40:27.166Z,143.50
2019-03-21T18:42:54.856Z,143.28
2019-03-21T18:45:22.567Z,143.13
2019-03-21T18:47:50.750Z,144.50
2019-03-21T18:50:19.795Z,143.90
2019-03-21T18:52:47.391Z,143.62
2019-03-21T18:55:23.312Z,145.95
2019-03-21T18:57:50.881Z,143.00
2019-03-21T19:00:19.499Z,143.17
2019-03-21T19:02:47.085Z,143.68
2019-03-21T19:05:15.090Z,144.57
2019-03-21T19:07:43.762Z,144.35
2019-03-21T19:10:11.660Z,144.05
2019-03-21T19:12:39.802Z,142.95
2019-03-21T19:15:08.730Z,143.78
2019-03-21T19:17:36.430Z,141.18
2019-03-21T19:20:06.917Z,143.68
2019-03-21T19:22:34.551Z,142.22
2019-03-21T19:25:02.262Z,142.15
2019-03-21T19:27:30.837Z,141.73
2019-03-21T19:29:58.518Z,143.65
2019-03-21T19:32:26.158Z,142.28
2019-03-21T19:34:53.759Z,143.22
2019-03-21T19:37:22.619Z,141.92
2019-03-21T19:39:50.671Z,143.52
2019-03-21T19:42:18.989Z,143.65
2019-03-21T19:44:46.697Z,144.15
2019-03-21T19:47:23.045Z,144.02
2019-03-21T19:49:43.868Z,142.32
2019-03-21T19:52:11.442Z,141.30
2019-03-21T19:54:39.517Z,140.68
2019-03-21T19:57:07.489Z,140.28
2019-03-21T19:59:35.271Z,140.25
2019-03-21T20:02:03.002Z,141.75
2019-03-21T20:04:30.811Z,142.47
2019-03-21T20:06:58.454Z,141.75
2019-03-21T20:09:26.590Z,140.35
2019-03-21T20:11:55.698Z,140.73
2019-03-21T20:14:23.446Z,140.45
2019-03-21T20:16:51.160Z,140.85
2019-03-21T20:19:20.742Z,139.28
2019-03-21T20:21:48.537Z,140.30
2019-03-21T20:24:16.808Z,139.18
2019-03-21T20:26:44.668Z,140.80
2019-03-21T20:29:13.595Z,138.92
2019-03-21T20:31:41.822Z,138.45
2019-03-21T20:34:09.452Z,139.40
2019-03-21T20:36:38.316Z,140.57
2019-03-21T20:39:07.623Z,138.55
2019-03-21T20:41:35.652Z,140.70
2019-03-21T20:44:14.690Z,140.18
2019-03-21T20:46:33.633Z,138.92
2019-03-21T20:49:01.441Z,138.28
2019-03-21T20:51:29.654Z,139.80
2019-03-21T20:53:57.326Z,140.40
2019-03-21T20:56:24.983Z,138.25
2019-03-21T20:58:53.718Z,141.92
2019-03-21T21:01:21.799Z,140.47
2019-03-21T21:03:49.696Z,141.20
2019-03-21T21:06:18.625Z,139.82
2019-03-21T21:08:46.313Z,140.30
2019-03-21T21:11:13.970Z,140.32
2019-03-21T21:13:44.000Z,142.13
2019-03-21T21:16:11.738Z,141.55
2019-03-21T21:18:39.387Z,141.73
2019-03-21T21:21:07.083Z,141.35
2019-03-21T21:23:34.814Z,140.45
2019-03-21T21:26:05.710Z,140.73
2019-03-21T21:28:33.735Z,139.57
2019-03-21T21:31:01.400Z,139.90
2019-03-21T21:33:29.092Z,139.85
2019-03-21T21:35:56.957Z,141.12
2019-03-21T21:38:24.585Z,141.30
2019-03-21T21:40:53.269Z,140.32
2019-03-21T21:43:20.890Z,139.62
2019-03-21T21:45:49.028Z,140.70
2019-03-21T21:48:16.608Z,139.10
2019-03-21T21:50:44.475Z,141.53
2019-03-21T21:53:12.260Z,140.07
2019-03-21T21:55:40.160Z,139.57
2019-03-21T21:58:07.772Z,139.32
2019-03-21T22:00:35.849Z,139.10
2019-03-21T22:03:03.675Z,137.77
2019-03-21T22:05:31.391Z,138.77
2019-03-21T22:07:59.129Z,139.05
2019-03-21T22:10:29.338Z,138.95
2019-03-21T22:12:56.367Z,138.55
2019-03-21T22:15:24.931Z,140.15
2019-03-21T22:17:52.516Z,138.20
2019-03-21T22:20:20.111Z,140.10
2019-03-21T22:22:47.783Z,139.15
2019-03-21T22:25:15.417Z,137.92
2019-03-21T22:27:43.329Z,138.65
2019-03-21T22:30:12.035Z,136.92
2019-03-21T22:32:39.656Z,137.25
2019-03-21T22:35:07.764Z,136.88
2019-03-21T22:37:35.581Z,137.07
2019-03-21T22:40:05.658Z,136.32
2019-03-21T22:42:33.348Z,139.05
2019-03-21T22:45:01.027Z,137.72
2019-03-21T22:47:30.081Z,136.82
2019-03-21T22:49:58.193Z,137.82
2019-03-21T22:52:26.158Z,138.40
2019-03-21T22:54:54.236Z,138.43
2019-03-21T22:57:21.811Z,138.18
2019-03-21T22:59:49.445Z,137.32
2019-03-21T23:02:17.225Z,136.92
2019-03-21T23:04:44.940Z,137.15
2019-03-21T23:07:12.582Z,137.55
2019-03-21T23:09:40.450Z,137.52
2019-03-21T23:12:08.139Z,138.47
2019-03-21T23:14:35.799Z,153.05
2019-03-21T23:17:03.808Z,137.37
2019-03-21T23:19:31.466Z,135.93
2019-03-21T23:21:59.532Z,136.92
2019-03-21T23:24:27.301Z,136.45
2019-03-21T23:26:55.635Z,135.28
2019-03-21T23:29:23.339Z,137.22
2019-03-21T23:31:55.035Z,136.80
2019-03-21T23:34:23.648Z,137.25
2019-03-21T23:36:52.689Z,137.35
2019-03-21T23:39:22.061Z,137.15
2019-03-21T23:41:49.746Z,137.80
2019-03-21T23:44:17.852Z,137.35
2019-03-21T23:46:45.551Z,136.18
2019-03-21T23:49:13.631Z,136.55
2019-03-21T23:51:41.429Z,135.57
2019-03-21T23:54:09.652Z,135.95
2019-03-21T23:56:38.493Z,136.70
2019-03-21T23:59:06.181Z,135.63
